createdAt,value
2023-05-13T00:00:21.952Z,4.10
2023-05-13T00:05:23.712Z,5.35
2023-05-13T00:10:25.226Z,3.65
2023-05-13T00:15:27.427Z,5.13
2023-05-13T00:20:28.985Z,4.35
2023-05-13T00:25:30.626Z,5.72
2023-05-13T00:30:32.454Z,3.90
2023-05-13T00:35:33.981Z,4.38
2023-05-13T00:40:42.373Z,4.72
2023-05-13T00:45:43.896Z,4.10
2023-05-13T00:50:45.626Z,4.68
2023-05-13T00:55:47.305Z,5.82
2023-05-13T01:01:27.124Z,4.97
2023-05-13T01:06:56.915Z,6.07
2023-05-13T01:12:07.563Z,5.82
2023-05-13T01:17:18.126Z,6.25
2023-05-13T01:22:20.046Z,5.75
2023-05-13T01:27:21.679Z,8.45
2023-05-13T01:32:24.100Z,7.22
2023-05-13T01:37:26.123Z,8.57
2023-05-13T01:42:30.044Z,7.10
2023-05-13T01:47:32.260Z,8.80
2023-05-13T01:52:34.141Z,6.90
2023-05-13T01:57:36.175Z,5.80
2023-05-13T02:02:37.869Z,5.40
2023-05-13T02:07:39.481Z,8.82
2023-05-13T02:12:41.293Z,7.57
2023-05-13T02:17:42.983Z,6.35
2023-05-13T02:22:44.545Z,6.35
2023-05-13T02:27:46.061Z,6.35
2023-05-13T02:32:47.776Z,6.20
2023-05-13T02:37:49.476Z,6.45
2023-05-13T02:42:51.457Z,5.40
2023-05-13T02:48:00.063Z,6.38
2023-05-13T02:53:02.692Z,8.38
2023-05-13T02:58:06.305Z,6.85
2023-05-13T03:03:08.570Z,6.85
2023-05-13T03:08:12.861Z,7.75
2023-05-13T03:13:14.456Z,6.20
2023-05-13T03:18:17.200Z,6.32
2023-05-13T03:23:19.008Z,7.10
2023-05-13T03:28:22.770Z,8.27
2023-05-13T03:33:24.398Z,6.53
2023-05-13T03:38:25.921Z,7.95
2023-05-13T03:43:28.319Z,6.35
2023-05-13T03:48:34.512Z,6.93
2023-05-13T03:53:37.453Z,6.45
2023-05-13T03:58:39.228Z,7.30
2023-05-13T04:03:42.845Z,6.97
2023-05-13T04:08:44.414Z,9.77
2023-05-13T04:13:46.104Z,7.47
2023-05-13T04:18:47.730Z,7.57
2023-05-13T04:23:49.258Z,7.00
2023-05-13T04:28:51.172Z,7.18
2023-05-13T04:33:53.183Z,6.82
2023-05-13T04:38:55.496Z,8.43
2023-05-13T04:43:57.907Z,6.13
2023-05-13T04:48:59.578Z,5.78
2023-05-13T04:54:01.701Z,5.60
2023-05-13T04:59:03.952Z,5.40
2023-05-13T05:04:06.020Z,5.93
2023-05-13T05:09:09.677Z,5.70
2023-05-13T05:14:11.322Z,6.47
2023-05-13T05:19:13.028Z,5.55
2023-05-13T05:24:14.976Z,5.95
2023-05-13T05:29:16.710Z,5.93
2023-05-13T05:34:19.340Z,5.32
2023-05-13T05:39:22.131Z,4.53
2023-05-13T05:44:23.871Z,4.05
2023-05-13T05:49:25.676Z,4.40
2023-05-13T05:54:28.042Z,6.43
2023-05-13T05:59:29.828Z,4.55
2023-05-13T06:04:31.603Z,3.88
2023-05-13T06:09:35.764Z,4.97
2023-05-13T06:14:38.104Z,5.25
2023-05-13T06:19:39.626Z,4.05
2023-05-13T06:24:42.984Z,4.85
2023-05-13T06:29:44.621Z,5.20
2023-05-13T06:34:47.441Z,4.18
2023-05-13T06:39:49.161Z,4.50
2023-05-13T06:44:52.026Z,3.85
2023-05-13T06:49:58.412Z,3.78
2023-05-13T06:54:59.995Z,4.60
2023-05-13T07:00:02.355Z,4.60
2023-05-13T07:05:04.137Z,4.60
2023-05-13T07:10:06.031Z,4.07
2023-05-13T07:15:08.482Z,5.00
2023-05-13T07:20:10.352Z,5.45
2023-05-13T07:25:12.505Z,3.83
2023-05-13T07:30:14.393Z,4.00
2023-05-13T07:35:17.162Z,4.03
2023-05-13T07:40:20.177Z,3.95
2023-05-13T07:45:22.375Z,4.30
2023-05-13T07:50:24.290Z,6.53
2023-05-13T07:55:26.015Z,5.85
2023-05-13T08:00:27.540Z,3.97
2023-05-13T08:05:29.069Z,3.47
2023-05-13T08:10:30.768Z,5.80
2023-05-13T08:15:32.368Z,4.55
2023-05-13T08:20:33.965Z,4.47
2023-05-13T08:25:35.521Z,5.63
2023-05-13T08:30:37.031Z,5.07
2023-05-13T08:35:38.691Z,5.20
2023-05-13T08:40:42.379Z,4.53
2023-05-13T08:45:47.991Z,3.92
2023-05-13T08:50:50.128Z,4.25
2023-05-13T08:55:52.326Z,5.28
2023-05-13T09:00:54.446Z,4.20
2023-05-13T09:05:56.426Z,3.47
2023-05-13T09:10:58.122Z,4.43
2023-05-13T09:15:59.720Z,3.90
2023-05-13T09:21:30.419Z,6.35
2023-05-13T09:26:31.975Z,4.85
2023-05-13T09:31:33.847Z,3.38
2023-05-13T09:36:35.429Z,3.40
2023-05-13T09:41:37.059Z,3.80
2023-05-13T09:46:38.917Z,6.38
2023-05-13T09:51:40.451Z,3.47
2023-05-13T09:56:42.217Z,5.28
2023-05-13T10:01:45.485Z,5.07
2023-05-13T10:06:48.930Z,3.55
2023-05-13T10:11:50.731Z,5.28
2023-05-13T10:16:52.907Z,3.78
2023-05-13T10:21:57.388Z,3.20
2023-05-13T10:27:01.599Z,3.08
2023-05-13T10:32:04.667Z,4.50
2023-05-13T10:37:16.615Z,3.53
2023-05-13T10:42:43.430Z,3.13
2023-05-13T10:47:50.122Z,4.43
2023-05-13T10:52:56.854Z,3.10
2023-05-13T10:58:08.503Z,4.45
2023-05-13T11:03:29.358Z,2.63
2023-05-13T11:08:41.498Z,5.00
2023-05-13T11:13:43.150Z,2.55
2023-05-13T11:18:44.853Z,2.78
2023-05-13T11:24:06.592Z,2.72
2023-05-13T11:29:08.083Z,2.65
2023-05-13T11:34:14.777Z,2.97
2023-05-13T11:39:18.739Z,2.28
2023-05-13T11:44:22.784Z,2.75
2023-05-13T11:49:45.064Z,2.83
2023-05-13T11:54:49.456Z,2.50
2023-05-13T11:59:55.418Z,3.15
2023-05-13T12:05:07.459Z,2.65
2023-05-13T12:10:09.442Z,2.60
2023-05-13T12:15:15.654Z,2.92
2023-05-13T12:20:18.976Z,2.78
2023-05-13T12:25:36.774Z,4.28
2023-05-13T12:30:54.480Z,3.38
2023-05-13T12:36:20.191Z,3.33
2023-05-13T12:41:22.891Z,3.33
2023-05-13T12:46:24.773Z,3.33
2023-05-13T12:51:26.611Z,3.55
2023-05-13T12:56:28.222Z,3.00
2023-05-13T13:01:29.857Z,3.58
2023-05-13T13:06:32.374Z,3.40
2023-05-13T13:11:33.939Z,5.53
2023-05-13T13:16:35.487Z,3.65
2023-05-13T13:21:37.156Z,3.63
2023-05-13T13:26:38.730Z,4.07
2023-05-13T13:31:40.308Z,8.15
2023-05-13T13:36:41.964Z,2.95
2023-05-13T13:41:43.501Z,5.10
2023-05-13T13:46:45.202Z,3.92
2023-05-13T13:51:46.725Z,5.07
2023-05-13T13:56:48.337Z,3.15
2023-05-13T14:01:50.119Z,3.25
2023-05-13T14:06:52.230Z,3.25
2023-05-13T14:11:53.800Z,3.50
2023-05-13T14:16:55.353Z,3.00
2023-05-13T14:21:56.903Z,3.08
2023-05-13T14:26:59.131Z,3.65
2023-05-13T14:32:02.829Z,5.13
2023-05-13T14:37:04.578Z,3.05
2023-05-13T14:42:06.414Z,2.85
2023-05-13T14:47:08.357Z,3.67
2023-05-13T14:52:10.102Z,3.58
2023-05-13T14:57:11.801Z,2.95
2023-05-13T15:02:13.955Z,3.67
2023-05-13T15:07:15.650Z,3.75
2023-05-13T15:12:17.197Z,3.72
2023-05-13T15:17:18.897Z,3.47
2023-05-13T15:22:20.478Z,3.67
2023-05-13T15:27:22.115Z,3.25
2023-05-13T15:32:23.644Z,3.40
2023-05-13T15:37:25.176Z,3.30
2023-05-13T15:42:27.599Z,4.13
2023-05-13T15:47:29.225Z,3.85
2023-05-13T15:52:30.801Z,2.88
2023-05-13T15:57:32.465Z,2.80
2023-05-13T16:02:39.785Z,2.70
2023-05-13T16:07:42.441Z,2.72
2023-05-13T16:12:44.077Z,2.58
2023-05-13T16:17:45.649Z,2.25
2023-05-13T16:22:47.244Z,5.05
2023-05-13T16:27:49.178Z,2.80
2023-05-13T16:32:53.444Z,3.53
2023-05-13T16:37:55.061Z,4.50
2023-05-13T16:42:59.295Z,2.70
2023-05-13T16:48:02.665Z,3.53
2023-05-13T16:53:04.323Z,4.45
2023-05-13T16:58:05.889Z,3.28
2023-05-13T17:03:07.848Z,3.25
2023-05-13T17:08:09.882Z,3.35
2023-05-13T17:13:11.679Z,3.60
2023-05-13T17:18:15.880Z,4.82
2023-05-13T17:23:17.463Z,3.70
2023-05-13T17:28:18.978Z,3.20
2023-05-13T17:33:20.545Z,3.78
2023-05-13T17:38:22.177Z,2.80
2023-05-13T17:43:23.680Z,3.10
2023-05-13T17:48:26.678Z,4.30
2023-05-13T17:53:28.507Z,3.75
2023-05-13T17:58:30.031Z,2.92
2023-05-13T18:03:31.576Z,3.85
2023-05-13T18:08:33.136Z,4.20
2023-05-13T18:13:35.968Z,3.90
2023-05-13T18:18:37.680Z,5.05
2023-05-13T18:23:39.350Z,4.32
2023-05-13T18:28:41.441Z,4.00
2023-05-13T18:33:43.030Z,5.82
2023-05-13T18:38:47.779Z,4.55
2023-05-13T18:43:50.400Z,4.40
2023-05-13T18:48:51.916Z,3.75
2023-05-13T18:53:53.411Z,4.30
2023-05-13T18:58:54.923Z,4.07
2023-05-13T19:03:56.856Z,5.60
2023-05-13T19:08:58.446Z,4.75
2023-05-13T19:13:59.999Z,4.72
2023-05-13T19:19:01.650Z,6.82
2023-05-13T19:24:03.456Z,6.53
2023-05-13T19:29:05.059Z,6.38
2023-05-13T19:34:07.684Z,6.30
2023-05-13T19:39:10.301Z,7.07
2023-05-13T19:44:11.815Z,8.25
2023-05-13T19:49:13.394Z,6.63
2023-05-13T19:54:14.914Z,9.10
2023-05-13T19:59:16.468Z,9.32
2023-05-13T20:04:18.013Z,6.25
2023-05-13T20:09:19.518Z,5.45
2023-05-13T20:14:27.810Z,6.32
2023-05-13T20:19:29.423Z,6.40
2023-05-13T20:24:31.051Z,8.15
2023-05-13T20:29:42.173Z,6.55
2023-05-13T20:34:44.092Z,8.63
2023-05-13T20:39:47.909Z,7.07
2023-05-13T20:44:50.628Z,7.57
2023-05-13T20:49:52.141Z,8.23
2023-05-13T20:54:53.676Z,8.00
2023-05-13T20:59:55.497Z,8.70
2023-05-13T21:04:57.170Z,7.80
2023-05-13T21:09:58.704Z,9.07
2023-05-13T21:15:00.215Z,9.13
2023-05-13T21:20:01.831Z,8.30
2023-05-13T21:25:03.543Z,7.45
2023-05-13T21:30:06.060Z,9.55
2023-05-13T21:35:08.057Z,8.27
2023-05-13T21:40:09.964Z,7.90
2023-05-13T21:45:13.025Z,8.68
2023-05-13T21:50:17.034Z,7.90
2023-05-13T21:55:18.709Z,11.25
2023-05-13T22:00:21.737Z,7.97
2023-05-13T22:05:23.903Z,7.28
2023-05-13T22:10:25.753Z,7.00
2023-05-13T22:15:29.845Z,6.55
2023-05-13T22:20:31.450Z,7.72
2023-05-13T22:25:33.269Z,8.88
2023-05-13T22:30:34.967Z,7.07
2023-05-13T22:35:36.690Z,7.70
2023-05-13T22:40:38.314Z,7.88
2023-05-13T22:45:39.956Z,7.00
2023-05-13T22:50:41.623Z,8.50
2023-05-13T22:55:43.152Z,7.50
2023-05-13T23:00:44.680Z,7.18
2023-05-13T23:05:46.229Z,12.80
2023-05-13T23:10:47.810Z,9.25
2023-05-13T23:15:49.522Z,9.20
2023-05-13T23:20:58.188Z,8.73
2023-05-13T23:25:59.744Z,9.07
2023-05-13T23:31:01.333Z,8.50
2023-05-13T23:36:02.864Z,8.52
2023-05-13T23:41:04.401Z,8.65
2023-05-13T23:46:06.011Z,7.88
2023-05-13T23:51:07.633Z,8.82
2023-05-13T23:56:09.179Z,8.73
